Time;durP1;ratioP1;P1;durP2;ratioP2;P2;SDS_P1;SDS_P2;PMS_P1;PMS_P2;Temp;Humidity;BMP_temperature;BMP_pressure;BME280_temperature;BME280_humidity;BME280_pressure;Samples;Min_cycle;Max_cycle;Signal;HPM_P1;HPM_P2
2023/07/01 00:00:48;;;;;;;19.00;14.97;;;17.50;99.90;;;;;;8262974;28;20191;-70
2023/07/01 00:04:52;;;;;;;18.87;15.27;;;17.40;99.90;;;;;;8268911;28;20306;-70
2023/07/01 00:08:54;;;;;;;18.63;15.27;;;17.40;99.90;;;;;;8268928;28;20215;-71
2023/07/01 00:12:55;;;;;;;20.47;16.20;;;17.40;99.90;;;;;;8270821;28;20182;-70
2023/07/01 00:16:56;;;;;;;21.27;17.17;;;17.30;99.90;;;;;;8255412;28;20203;-69
2023/07/01 00:21:00;;;;;;;21.90;17.90;;;17.30;99.90;;;;;;8267161;28;20207;-69
2023/07/01 00:25:02;;;;;;;22.40;17.40;;;17.30;99.90;;;;;;8270941;28;20203;-68
2023/07/01 00:29:11;;;;;;;21.30;17.97;;;17.30;99.90;;;;;;8267341;28;20211;-69
2023/07/01 00:33:16;;;;;;;21.03;16.90;;;17.30;99.90;;;;;;8266934;28;20266;-69
2023/07/01 00:37:17;;;;;;;20.70;17.60;;;17.30;99.90;;;;;;8270200;28;20192;-69
2023/07/01 00:41:21;;;;;;;22.47;18.13;;;17.30;99.90;;;;;;8276555;28;20187;-70
2023/07/01 00:45:22;;;;;;;19.10;16.27;;;17.20;99.90;;;;;;8270700;28;20203;-69
2023/07/01 00:49:23;;;;;;;20.57;17.17;;;17.20;99.90;;;;;;8273433;28;20195;-69
2023/07/01 00:53:27;;;;;;;22.07;18.37;;;17.20;99.90;;;;;;8269893;28;20198;-69
2023/07/01 00:57:28;;;;;;;20.90;17.23;;;17.20;99.90;;;;;;8268830;28;20192;-70
2023/07/01 01:01:34;;;;;;;23.43;17.53;;;17.20;99.90;;;;;;8271310;28;20195;-70
2023/07/01 01:05:48;;;;;;;22.43;18.23;;;17.20;99.90;;;;;;8273222;28;20203;-69
2023/07/01 01:09:54;;;;;;;20.70;16.87;;;17.20;99.90;;;;;;8275242;28;20184;-70
2023/07/01 01:13:58;;;;;;;23.30;17.43;;;17.10;99.90;;;;;;8272092;28;20191;-70
2023/07/01 01:18:04;;;;;;;20.80;16.93;;;17.10;99.90;;;;;;8270242;28;20187;-69
2023/07/01 01:22:16;;;;;;;21.93;17.83;;;17.10;99.90;;;;;;8273560;28;20195;-70
2023/07/01 01:26:26;;;;;;;21.07;16.97;;;17.10;99.90;;;;;;8279075;28;20277;-71
2023/07/01 01:30:33;;;;;;;22.53;17.37;;;17.10;99.90;;;;;;8277701;28;20183;-69
2023/07/01 01:34:34;;;;;;;24.83;18.37;;;17.00;99.90;;;;;;8272329;28;20303;-69
2023/07/01 01:38:41;;;;;;;18.47;16.23;;;17.00;99.90;;;;;;8272313;28;20187;-69
2023/07/01 01:42:45;;;;;;;22.87;16.83;;;17.00;99.90;;;;;;8268400;28;20202;-69
2023/07/01 01:46:46;;;;;;;22.33;16.97;;;17.00;99.90;;;;;;8269318;28;20211;-67
2023/07/01 01:50:51;;;;;;;20.53;16.50;;;17.00;99.90;;;;;;8284497;28;20279;-70
2023/07/01 01:54:55;;;;;;;21.20;17.47;;;17.00;99.90;;;;;;8270615;28;20180;-71
2023/07/01 01:58:56;;;;;;;24.50;18.60;;;16.90;99.90;;;;;;8268847;28;20195;-70
2023/07/01 02:02:57;;;;;;;24.13;17.93;;;16.90;99.90;;;;;;8270008;28;20255;-70
2023/07/01 02:06:58;;;;;;;22.47;17.17;;;16.90;99.90;;;;;;8271219;28;20214;-69
2023/07/01 02:10:59;;;;;;;18.13;15.27;;;16.90;99.90;;;;;;8274998;28;20278;-70
2023/07/01 02:15:00;;;;;;;17.80;14.30;;;16.90;99.90;;;;;;8271985;28;20207;-69
2023/07/01 02:19:01;;;;;;;17.57;14.57;;;16.90;99.90;;;;;;8270140;28;20202;-70
2023/07/01 02:23:02;;;;;;;19.77;15.17;;;16.80;99.90;;;;;;8270944;28;20195;-67
2023/07/01 02:27:03;;;;;;;19.50;15.37;;;16.80;99.90;;;;;;8272044;28;20248;-69
2023/07/01 02:31:04;;;;;;;19.47;15.17;;;16.80;99.90;;;;;;8268586;28;20269;-69
2023/07/01 02:35:05;;;;;;;19.23;15.73;;;16.80;99.90;;;;;;8272207;28;20248;-69
2023/07/01 02:39:10;;;;;;;18.27;14.77;;;16.90;99.90;;;;;;8266554;28;20191;-70
2023/07/01 02:43:11;;;;;;;20.43;16.67;;;16.80;99.90;;;;;;8280795;28;20321;-70
2023/07/01 02:47:15;;;;;;;19.30;14.17;;;16.80;99.90;;;;;;8275266;28;20272;-70
2023/07/01 02:51:17;;;;;;;18.83;14.97;;;16.80;99.90;;;;;;8265104;28;20211;-69
2023/07/01 02:55:21;;;;;;;19.90;15.07;;;16.80;99.90;;;;;;8271311;28;20188;-70
2023/07/01 02:59:22;;;;;;;19.67;14.70;;;16.80;99.90;;;;;;8270305;28;20246;-70
2023/07/01 03:03:23;;;;;;;19.57;15.33;;;16.80;99.90;;;;;;8270604;28;20214;-69
2023/07/01 03:07:24;;;;;;;16.80;14.37;;;16.80;99.90;;;;;;8267187;28;20225;-70
2023/07/01 03:11:25;;;;;;;17.77;15.13;;;16.80;99.90;;;;;;8261896;28;20179;-71
2023/07/01 03:15:26;;;;;;;19.90;15.03;;;16.80;99.90;;;;;;8270088;28;20188;-69
2023/07/01 03:19:29;;;;;;;21.13;16.70;;;16.80;99.90;;;;;;8266861;28;20210;-69
2023/07/01 03:23:31;;;;;;;21.53;17.57;;;16.70;99.90;;;;;;8263964;28;20180;-69
2023/07/01 03:27:31;;;;;;;19.53;16.60;;;16.70;99.90;;;;;;8265027;28;20203;-69
2023/07/01 03:31:33;;;;;;;23.00;17.20;;;16.80;99.90;;;;;;8267952;28;20213;-69
2023/07/01 03:35:34;;;;;;;22.60;16.10;;;16.90;99.90;;;;;;8268826;28;20199;-69
2023/07/01 03:39:34;;;;;;;18.63;15.00;;;17.10;99.90;;;;;;8265653;28;20287;-69
2023/07/01 03:43:35;;;;;;;19.17;14.40;;;17.20;99.90;;;;;;8264387;28;20223;-68
2023/07/01 03:47:42;;;;;;;18.80;15.40;;;17.30;99.90;;;;;;8268294;28;20230;-69
2023/07/01 03:51:43;;;;;;;18.73;14.07;;;17.30;99.90;;;;;;8278326;28;20226;-69
2023/07/01 03:55:44;;;;;;;124.37;19.80;;;17.40;99.90;;;;;;8267111;28;20184;-69
2023/07/01 03:59:45;;;;;;;17.13;15.33;;;17.60;99.90;;;;;;8267495;28;20209;-68
2023/07/01 04:03:46;;;;;;;16.70;13.43;;;17.80;99.90;;;;;;8271279;28;20231;-69
2023/07/01 04:07:49;;;;;;;17.93;14.70;;;18.00;99.90;;;;;;8265559;28;20221;-68
2023/07/01 04:11:50;;;;;;;14.83;12.33;;;18.50;99.90;;;;;;8285479;28;20279;-70
2023/07/01 04:15:51;;;;;;;16.37;13.57;;;18.90;99.90;;;;;;8274602;28;20179;-70
2023/07/01 04:19:52;;;;;;;17.13;12.97;;;18.80;99.90;;;;;;8276382;28;20202;-72
2023/07/01 04:23:53;;;;;;;14.17;11.33;;;18.60;99.90;;;;;;8271677;28;20282;-67
2023/07/01 04:27:57;;;;;;;16.17;12.73;;;18.40;99.90;;;;;;8271302;28;20207;-68
2023/07/01 04:32:04;;;;;;;16.00;13.33;;;18.40;99.90;;;;;;8274185;28;20195;-69
2023/07/01 04:36:05;;;;;;;16.37;13.27;;;18.30;99.90;;;;;;8275662;28;20188;-68
2023/07/01 04:40:07;;;;;;;14.40;12.37;;;18.20;99.90;;;;;;8269319;28;20287;-69
2023/07/01 04:44:08;;;;;;;11.73;10.20;;;18.30;99.90;;;;;;8273403;28;20246;-68
2023/07/01 04:48:10;;;;;;;12.80;10.90;;;18.50;99.90;;;;;;8268663;28;20215;-68
2023/07/01 04:52:15;;;;;;;16.20;12.17;;;18.60;99.90;;;;;;8270358;28;20188;-69
2023/07/01 04:56:16;;;;;;;12.07;10.77;;;18.70;99.90;;;;;;8274356;28;20195;-69
2023/07/01 05:00:18;;;;;;;11.07;9.87;;;18.70;99.90;;;;;;8276634;28;20187;-69
2023/07/01 05:04:18;;;;;;;11.77;9.67;;;18.60;99.90;;;;;;8269619;28;20214;-68
2023/07/01 05:08:20;;;;;;;10.10;8.77;;;18.50;99.90;;;;;;8270170;28;20211;-69
2023/07/01 05:12:21;;;;;;;11.10;9.17;;;18.60;99.90;;;;;;8275900;28;20180;-70
2023/07/01 05:16:22;;;;;;;9.97;8.67;;;18.60;99.90;;;;;;8268748;28;20289;-70
2023/07/01 05:20:23;;;;;;;10.80;9.20;;;18.60;99.90;;;;;;8273385;28;20193;-70
2023/07/01 05:24:24;;;;;;;9.57;8.57;;;18.60;99.90;;;;;;8269216;28;20195;-70
2023/07/01 05:28:25;;;;;;;9.57;8.37;;;18.70;99.90;;;;;;8272033;28;20219;-71
2023/07/01 05:32:26;;;;;;;8.77;7.87;;;18.80;99.90;;;;;;8270498;28;20191;-69
2023/07/01 05:36:27;;;;;;;9.77;8.07;;;19.10;99.90;;;;;;8267464;28;20266;-70
2023/07/01 05:40:28;;;;;;;9.97;8.43;;;19.30;99.90;;;;;;8269833;28;20271;-69
2023/07/01 05:44:29;;;;;;;9.87;7.97;;;19.40;1.00;;;;;;8270386;28;20204;-70
2023/07/01 05:48:30;;;;;;;7.07;6.37;;;19.60;99.90;;;;;;8270369;28;20215;-69
2023/07/01 05:52:31;;;;;;;8.67;7.27;;;19.90;25.50;;;;;;8266373;28;20193;-70
2023/07/01 05:56:32;;;;;;;8.10;6.80;;;20.30;1.00;;;;;;8273107;28;20195;-70
2023/07/01 06:00:33;;;;;;;9.43;7.53;;;20.70;99.90;;;;;;8267085;28;20195;-70
2023/07/01 06:04:34;;;;;;;9.87;7.30;;;20.90;99.90;;;;;;8263832;28;20207;-70
2023/07/01 06:08:35;;;;;;;8.00;7.20;;;20.90;99.90;;;;;;8265697;28;20223;-70
2023/07/01 06:12:36;;;;;;;7.50;6.77;;;20.70;99.90;;;;;;8266758;28;20184;-69
2023/07/01 06:16:37;;;;;;;11.40;7.37;;;20.80;99.90;;;;;;8268533;28;20237;-70
2023/07/01 06:20:38;;;;;;;7.83;6.70;;;21.30;99.90;;;;;;8268375;28;20199;-70
2023/07/01 06:24:39;;;;;;;7.33;6.47;;;21.90;99.90;;;;;;8271455;28;20267;-69
2023/07/01 06:28:40;;;;;;;8.00;6.60;;;22.40;99.90;;;;;;8268181;28;20222;-68
2023/07/01 06:32:41;;;;;;;10.73;7.93;;;22.90;99.90;;;;;;8268671;28;20184;-68
2023/07/01 06:36:42;;;;;;;9.40;7.77;;;23.30;93.70;;;;;;8270812;28;20184;-69
2023/07/01 06:40:43;;;;;;;9.97;7.90;;;23.60;65.60;;;;;;8269955;28;20207;-69
2023/07/01 06:44:44;;;;;;;9.90;7.73;;;23.80;43.40;;;;;;8267776;28;20210;-69
2023/07/01 06:48:45;;;;;;;10.57;9.03;;;23.80;18.00;;;;;;8268891;28;20203;-69
2023/07/01 06:52:46;;;;;;;11.50;8.93;;;23.80;15.10;;;;;;8269181;28;20195;-72
2023/07/01 06:56:46;;;;;;;9.13;8.23;;;23.90;10.70;;;;;;8268677;28;20191;-72
2023/07/01 07:00:47;;;;;;;9.83;8.63;;;23.90;4.40;;;;;;8268373;28;20187;-67
2023/07/01 07:04:48;;;;;;;10.70;9.60;;;23.90;1.00;;;;;;8269449;28;20246;-70
2023/07/01 07:08:52;;;;;;;8.87;7.93;;;24.00;1.00;;;;;;8266375;28;20223;-71
2023/07/01 07:12:53;;;;;;;12.13;10.13;;;23.90;1.00;;;;;;8273475;28;20214;-70
2023/07/01 07:16:54;;;;;;;9.52;8.52;;;23.90;1.00;;;;;;8267479;28;20191;-69
2023/07/01 07:20:55;;;;;;;11.00;8.60;;;23.90;1.00;;;;;;8267961;28;20194;-71
2023/07/01 07:24:57;;;;;;;8.95;7.70;;;24.20;1.00;;;;;;8268298;28;20227;-72
2023/07/01 07:28:58;;;;;;;9.98;8.98;;;24.40;1.00;;;;;;8266045;28;20260;-67
2023/07/01 07:32:59;;;;;;;8.88;7.85;;;24.60;1.00;;;;;;8270466;28;20270;-67
2023/07/01 07:37:00;;;;;;;8.88;7.63;;;24.90;1.00;;;;;;8267145;28;20194;-67
2023/07/01 07:41:03;;;;;;;7.95;7.15;;;25.20;1.00;;;;;;8265983;28;20192;-67
2023/07/01 07:45:04;;;;;;;9.77;8.25;;;25.30;1.00;;;;;;8264739;28;20245;-66
2023/07/01 07:49:05;;;;;;;10.15;7.90;;;25.10;1.00;;;;;;8263657;28;20203;-67
2023/07/01 07:53:06;;;;;;;9.18;8.25;;;24.70;1.00;;;;;;8260976;28;20290;-67
2023/07/01 07:57:07;;;;;;;10.10;9.05;;;24.40;1.00;;;;;;8262582;28;20191;-67
2023/07/01 08:01:08;;;;;;;8.43;7.53;;;24.40;1.00;;;;;;8268706;28;20188;-67
2023/07/01 08:05:09;;;;;;;10.23;8.05;;;24.60;1.00;;;;;;8270220;28;20363;-68
2023/07/01 08:09:12;;;;;;;9.18;7.82;;;24.90;1.00;;;;;;8268173;28;20285;-68
2023/07/01 08:13:14;;;;;;;8.20;7.07;;;25.30;1.00;;;;;;8265831;28;20222;-67
2023/07/01 08:17:15;;;;;;;8.05;6.53;;;25.50;1.00;;;;;;8268950;28;20187;-68
2023/07/01 08:21:16;;;;;;;7.32;6.00;;;25.60;1.00;;;;;;8268951;28;20194;-68
2023/07/01 08:25:17;;;;;;;6.45;5.85;;;25.80;1.00;;;;;;8265044;28;20238;-68
2023/07/01 08:29:19;;;;;;;6.25;5.53;;;26.10;1.00;;;;;;8267098;28;20211;-67
2023/07/01 08:33:20;;;;;;;7.60;5.82;;;26.30;1.00;;;;;;8266734;28;20184;-68
2023/07/01 08:37:21;;;;;;;7.88;6.00;;;26.20;1.00;;;;;;8263598;28;20192;-68
2023/07/01 08:41:24;;;;;;;6.50;5.80;;;25.90;1.00;;;;;;8266102;28;20184;-70
2023/07/01 08:45:25;;;;;;;6.63;5.47;;;26.10;1.00;;;;;;8279003;28;20206;-68
2023/07/01 08:49:28;;;;;;;7.32;5.45;;;26.30;1.00;;;;;;8261280;28;20217;-67
2023/07/01 08:53:29;;;;;;;5.38;4.88;;;26.80;1.00;;;;;;8265131;28;20180;-66
2023/07/01 08:57:30;;;;;;;6.50;4.80;;;26.90;1.00;;;;;;8262325;28;20306;-67
2023/07/01 09:01:32;;;;;;;4.63;4.20;;;24.80;1.00;;;;;;8270709;28;20274;-66
2023/07/01 09:05:36;;;;;;;4.47;4.07;;;22.70;1.00;;;;;;8270954;28;20211;-68
2023/07/01 09:09:40;;;;;;;4.10;3.67;;;21.50;1.00;;;;;;8286896;28;20218;-66
2023/07/01 09:13:42;;;;;;;4.23;3.77;;;20.90;1.00;;;;;;8271407;28;20183;-66
2023/07/01 09:17:43;;;;;;;4.10;3.70;;;21.00;1.00;;;;;;8272421;28;20282;-67
2023/07/01 09:21:44;;;;;;;3.90;3.47;;;21.50;1.00;;;;;;8272015;28;20301;-67
2023/07/01 09:25:45;;;;;;;5.90;3.90;;;22.00;1.00;;;;;;8270572;28;20183;-68
2023/07/01 09:29:49;;;;;;;4.33;3.93;;;22.10;1.00;;;;;;8271360;28;20202;-67
2023/07/01 09:34:05;;;;;;;5.53;4.10;;;22.40;1.00;;;;;;8271230;28;20207;-67
2023/07/01 09:38:06;;;;;;;4.63;4.23;;;22.40;1.00;;;;;;8269383;28;20195;-66
2023/07/01 09:42:07;;;;;;;4.53;4.00;;;22.50;1.00;;;;;;8270295;28;20191;-67
2023/07/01 09:46:08;;;;;;;4.90;4.10;;;22.70;1.00;;;;;;8271773;28;20279;-67
2023/07/01 09:50:29;;;;;;;4.57;4.10;;;23.20;1.00;;;;;;8271338;28;20246;-68
2023/07/01 09:54:31;;;;;;;4.83;4.00;;;23.40;1.00;;;;;;8267843;28;20191;-66
2023/07/01 09:58:32;;;;;;;5.33;4.10;;;23.80;1.00;;;;;;8272972;28;20180;-68
2023/07/01 10:02:33;;;;;;;4.47;4.07;;;24.00;1.00;;;;;;8268707;28;20199;-67
2023/07/01 10:06:34;;;;;;;5.77;4.70;;;23.80;1.00;;;;;;8272216;28;20295;-67
2023/07/01 10:10:35;;;;;;;5.67;4.40;;;23.60;1.00;;;;;;8272196;28;20207;-68
2023/07/01 10:14:36;;;;;;;8.40;4.80;;;23.20;1.00;;;;;;8271783;28;20211;-67
2023/07/01 10:18:38;;;;;;;8.17;5.33;;;23.00;1.00;;;;;;8267662;28;20246;-67
2023/07/01 10:22:53;;;;;;;6.30;4.90;;;23.30;1.00;;;;;;8267805;28;20247;-66
2023/07/01 10:26:54;;;;;;;6.30;4.90;;;23.50;1.00;;;;;;8268836;28;20227;-67
2023/07/01 10:30:55;;;;;;;8.90;4.80;;;23.50;1.00;;;;;;8270821;28;20183;-68
2023/07/01 10:34:56;;;;;;;5.87;5.37;;;23.20;1.00;;;;;;8270241;28;20180;-67
2023/07/01 10:39:30;;;;;;;5.87;4.97;;;23.30;1.00;;;;;;8282770;28;20199;-68
2023/07/01 10:43:38;;;;;;;4.70;4.30;;;23.90;1.00;;;;;;8280724;28;20199;-68
2023/07/01 10:47:45;;;;;;;5.90;4.90;;;24.20;1.00;;;;;;8274825;28;20225;-68
2023/07/01 10:51:47;;;;;;;5.53;4.45;;;24.70;1.00;;;;;;8266538;28;20184;-67
2023/07/01 10:55:47;;;;;;;4.72;4.28;;;25.20;1.00;;;;;;8265440;28;20179;-67
2023/07/01 10:59:48;;;;;;;4.28;3.80;;;25.70;1.00;;;;;;8266073;28;20179;-66
2023/07/01 11:03:49;;;;;;;4.25;3.72;;;26.20;1.00;;;;;;8273075;28;20284;-69
2023/07/01 11:07:51;;;;;;;4.93;4.40;;;26.50;1.00;;;;;;8265773;28;20215;-68
2023/07/01 11:11:52;;;;;;;5.32;4.15;;;26.10;1.00;;;;;;8266894;28;20195;-68
2023/07/01 11:16:04;;;;;;;4.43;3.90;;;25.20;1.00;;;;;;8268841;28;20184;-66
2023/07/01 11:20:05;;;;;;;4.17;3.77;;;24.70;1.00;;;;;;8280388;28;20189;-68
2023/07/01 11:24:08;;;;;;;4.03;3.30;;;24.60;1.00;;;;;;8268093;28;20188;-68
2023/07/01 11:28:09;;;;;;;4.93;3.07;;;24.50;1.00;;;;;;8271573;28;20238;-66
2023/07/01 11:32:14;;;;;;;3.63;2.90;;;24.90;1.00;;;;;;8267139;28;20187;-68
2023/07/01 11:36:17;;;;;;;3.63;2.40;;;25.00;1.00;;;;;;8264526;28;20191;-65
2023/07/01 11:40:39;;;;;;;3.10;2.40;;;25.50;1.00;;;;;;8270558;28;20195;-67
2023/07/01 11:44:40;;;;;;;4.20;2.30;;;25.60;1.00;;;;;;8269074;28;20281;-67
2023/07/01 11:48:41;;;;;;;3.38;2.50;;;25.30;1.00;;;;;;8269139;28;20215;-67
2023/07/01 11:52:42;;;;;;;5.88;2.13;;;25.60;1.00;;;;;;8265120;28;20183;-68
2023/07/01 11:56:44;;;;;;;2.85;2.13;;;26.30;1.00;;;;;;8267037;28;20180;-68
2023/07/01 12:00:45;;;;;;;3.08;1.80;;;26.30;1.00;;;;;;8269495;28;20180;-69
2023/07/01 12:04:51;;;;;;;4.55;1.80;;;25.80;1.00;;;;;;8265306;28;20207;-67
2023/07/01 12:09:03;;;;;;;1.73;1.52;;;26.00;1.00;;;;;;8267518;28;20282;-70
2023/07/01 12:13:05;;;;;;;2.03;1.42;;;25.40;1.00;;;;;;8265511;28;20186;-67
2023/07/01 12:17:08;;;;;;;2.35;1.70;;;25.40;1.00;;;;;;8265924;28;20195;-67
2023/07/01 12:21:09;;;;;;;2.88;1.05;;;25.50;1.00;;;;;;8270251;28;20184;-68
2023/07/01 12:25:10;;;;;;;2.80;1.40;;;25.50;1.00;;;;;;8266727;28;20210;-67
2023/07/01 12:29:13;;;;;;;5.47;1.60;;;25.20;1.00;;;;;;8264407;28;20293;-68
2023/07/01 12:33:14;;;;;;;3.23;1.90;;;25.20;1.00;;;;;;8270203;28;20168;-67
2023/07/01 12:37:15;;;;;;;2.83;2.13;;;25.40;1.00;;;;;;8276213;28;20211;-66
2023/07/01 12:41:16;;;;;;;2.67;2.13;;;25.70;1.00;;;;;;8272057;28;20187;-67
2023/07/01 12:45:20;;;;;;;3.58;2.30;;;25.90;1.00;;;;;;8273230;28;20192;-67
2023/07/01 12:49:21;;;;;;;2.90;2.42;;;25.70;1.00;;;;;;8274856;28;20212;-68
2023/07/01 12:53:22;;;;;;;2.42;2.08;;;25.80;1.00;;;;;;8269611;28;20205;-69
2023/07/01 12:57:23;;;;;;;3.92;2.30;;;25.80;1.00;;;;;;8268733;28;20191;-66
2023/07/01 13:01:24;;;;;;;4.35;2.35;;;25.10;1.00;;;;;;8268940;28;20189;-69
2023/07/01 13:05:25;;;;;;;4.53;2.53;;;25.20;1.00;;;;;;8270063;28;20211;-67
2023/07/01 13:09:43;;;;;;;4.13;2.73;;;25.40;1.00;;;;;;8271223;28;20207;-67
2023/07/01 13:13:44;;;;;;;5.73;2.87;;;25.20;1.00;;;;;;8273883;28;20210;-67
2023/07/01 13:17:47;;;;;;;4.37;2.63;;;25.40;1.00;;;;;;8271207;28;20187;-66
2023/07/01 13:21:48;;;;;;;3.80;2.85;;;25.30;1.00;;;;;;8274470;28;20197;-66
2023/07/01 13:25:52;;;;;;;4.80;2.60;;;25.10;1.00;;;;;;8273652;28;20183;-67
2023/07/01 13:29:53;;;;;;;4.05;2.85;;;25.40;1.00;;;;;;8266185;28;20218;-66
2023/07/01 13:34:01;;;;;;;4.95;2.80;;;25.80;1.00;;;;;;8268524;28;20184;-66
2023/07/01 13:38:09;;;;;;;5.53;2.70;;;26.10;1.00;;;;;;8283744;28;20187;-66
2023/07/01 13:42:11;;;;;;;5.17;2.40;;;25.40;1.00;;;;;;8268039;28;20197;-66
2023/07/01 13:46:11;;;;;;;7.13;3.00;;;25.00;1.00;;;;;;8272608;28;20196;-67
2023/07/01 13:50:24;;;;;;;3.73;2.60;;;25.10;1.00;;;;;;8268185;28;20201;-67
2023/07/01 13:54:26;;;;;;;6.90;2.78;;;25.60;1.00;;;;;;8282965;28;20274;-67
2023/07/01 13:58:28;;;;;;;4.28;2.65;;;26.20;1.00;;;;;;8271090;28;20184;-65
2023/07/01 14:02:29;;;;;;;3.97;2.50;;;26.30;1.00;;;;;;8263569;28;20315;-66
2023/07/01 14:06:31;;;;;;;3.58;3.10;;;25.80;1.00;;;;;;8265270;28;20212;-66
2023/07/01 14:10:37;;;;;;;4.50;2.70;;;25.80;1.00;;;;;;8270570;28;20184;-66
2023/07/01 14:14:39;;;;;;;3.95;2.58;;;26.30;1.00;;;;;;8267631;28;20179;-68
2023/07/01 14:18:43;;;;;;;3.17;2.70;;;26.30;1.00;;;;;;8268425;28;20194;-68
2023/07/01 14:22:47;;;;;;;5.07;2.40;;;26.20;1.00;;;;;;8264222;28;20183;-66
2023/07/01 14:26:49;;;;;;;5.47;2.88;;;26.40;1.00;;;;;;8263407;28;20211;-68
2023/07/01 14:30:53;;;;;;;4.85;3.15;;;26.50;1.00;;;;;;8265080;28;20210;-67
2023/07/01 14:34:54;;;;;;;7.38;3.17;;;26.60;1.00;;;;;;8264762;28;20187;-64
2023/07/01 14:38:59;;;;;;;6.57;3.47;;;26.50;1.00;;;;;;8266598;28;20183;-67
2023/07/01 14:43:09;;;;;;;6.60;3.25;;;26.40;1.00;;;;;;8264109;28;20211;-68
2023/07/01 14:47:09;;;;;;;4.43;3.28;;;26.00;1.00;;;;;;8263032;28;20215;-67
2023/07/01 14:51:10;;;;;;;7.18;3.60;;;25.90;99.90;;;;;;8262927;28;20459;-67
2023/07/01 14:55:11;;;;;;;4.72;3.25;;;26.10;99.90;;;;;;8262828;28;20233;-66
2023/07/01 14:59:16;;;;;;;3.75;3.28;;;26.40;99.90;;;;;;8265750;28;20229;-66
2023/07/01 15:03:17;;;;;;;4.40;3.40;;;26.30;99.90;;;;;;8275858;28;20326;-67
2023/07/01 15:07:18;;;;;;;4.68;3.47;;;26.00;99.90;;;;;;8269710;28;20203;-66
2023/07/01 15:11:22;;;;;;;6.88;3.60;;;26.10;99.90;;;;;;8263530;28;20190;-67
2023/07/01 15:15:23;;;;;;;5.10;3.65;;;25.80;99.90;;;;;;8265532;28;20211;-67
2023/07/01 15:19:24;;;;;;;4.70;3.30;;;25.80;99.90;;;;;;8265448;28;20203;-67
2023/07/01 15:23:25;;;;;;;5.68;3.17;;;25.70;99.90;;;;;;8278403;28;20237;-68
2023/07/01 15:27:26;;;;;;;3.10;2.65;;;25.70;99.90;;;;;;8264911;28;20309;-68
2023/07/01 15:31:27;;;;;;;3.40;2.53;;;26.30;99.90;;;;;;8263140;28;20175;-67
2023/07/01 15:35:28;;;;;;;7.35;3.40;;;26.70;1.00;;;;;;8262921;28;20326;-67
2023/07/01 15:39:30;;;;;;;6.10;3.53;;;26.90;99.90;;;;;;8267139;28;20183;-66
2023/07/01 15:43:31;;;;;;;4.18;2.88;;;26.60;99.90;;;;;;8268605;28;20203;-67
2023/07/01 15:47:33;;;;;;;6.18;3.05;;;26.70;99.90;;;;;;8259764;28;20215;-66
2023/07/01 15:51:35;;;;;;;4.10;2.95;;;26.80;99.90;;;;;;8276444;28;20184;-67
2023/07/01 15:55:36;;;;;;;7.15;3.30;;;26.60;99.90;;;;;;8263657;28;20314;-68
2023/07/01 15:59:37;;;;;;;5.72;3.33;;;26.40;99.90;;;;;;8265434;28;20187;-68
2023/07/01 16:03:38;;;;;;;6.10;3.97;;;26.40;99.90;;;;;;8266321;28;20202;-66
2023/07/01 16:08:04;;;;;;;5.25;3.50;;;26.50;99.90;;;;;;8266317;28;20210;-67
2023/07/01 16:12:27;;;;;;;5.65;3.42;;;26.40;1.00;;;;;;8270745;28;20183;-68
2023/07/01 16:16:28;;;;;;;3.67;3.28;;;26.40;99.90;;;;;;8267934;28;20191;-67
2023/07/01 16:20:32;;;;;;;5.47;3.60;;;26.50;99.90;;;;;;8271258;28;20183;-68
2023/07/01 16:24:56;;;;;;;4.35;3.63;;;26.70;99.90;;;;;;8265408;28;20183;-68
2023/07/01 16:29:00;;;;;;;4.53;3.55;;;26.80;99.90;;;;;;8268589;28;20298;-69
2023/07/01 16:33:05;;;;;;;4.53;3.33;;;26.80;99.90;;;;;;8271082;28;20187;-68
2023/07/01 16:37:06;;;;;;;5.03;4.10;;;26.60;99.90;;;;;;8271674;28;20234;-68
2023/07/01 16:41:07;;;;;;;5.30;3.08;;;26.60;99.90;;;;;;8267905;28;20276;-67
2023/07/01 16:45:12;;;;;;;4.00;3.60;;;26.40;99.90;;;;;;8271603;28;20206;-68
2023/07/01 16:49:16;;;;;;;5.45;4.35;;;26.30;99.90;;;;;;8267175;28;20207;-67
2023/07/01 16:53:17;;;;;;;5.47;3.30;;;26.30;99.90;;;;;;8274316;28;20175;-66
2023/07/01 16:57:19;;;;;;;5.18;4.10;;;26.20;99.90;;;;;;8268408;28;20192;-67
2023/07/01 17:01:41;;;;;;;5.47;3.92;;;26.10;99.90;;;;;;8269642;28;20188;-67
2023/07/01 17:05:42;;;;;;;6.25;3.95;;;26.10;99.90;;;;;;8268321;28;20219;-67
2023/07/01 17:09:47;;;;;;;5.95;3.88;;;26.00;99.90;;;;;;8268123;28;20276;-68
2023/07/01 17:13:47;;;;;;;4.90;4.07;;;25.80;99.90;;;;;;8267203;28;20222;-67
2023/07/01 17:17:54;;;;;;;4.07;3.63;;;25.80;99.90;;;;;;8262656;28;20176;-68
2023/07/01 17:21:55;;;;;;;5.70;4.00;;;26.00;1.00;;;;;;8271831;28;20225;-68
2023/07/01 17:25:57;;;;;;;5.78;3.78;;;26.30;99.90;;;;;;8272089;28;20599;-68
2023/07/01 17:29:58;;;;;;;6.35;4.00;;;26.30;99.90;;;;;;8281996;28;20215;-68
2023/07/01 17:33:58;;;;;;;9.20;4.60;;;26.10;99.90;;;;;;8273628;28;20221;-67
2023/07/01 17:37:59;;;;;;;5.97;4.15;;;25.80;99.90;;;;;;8266085;28;20183;-68
2023/07/01 17:42:00;;;;;;;6.38;5.35;;;25.40;1.00;;;;;;8269693;28;20222;-68
2023/07/01 17:46:01;;;;;;;8.13;6.83;;;25.10;1.00;;;;;;8273401;28;20227;-68
2023/07/01 17:50:02;;;;;;;5.17;4.40;;;24.80;1.00;;;;;;8273911;28;20222;-68
2023/07/01 17:54:03;;;;;;;4.50;3.90;;;24.60;1.00;;;;;;8273305;28;20198;-68
2023/07/01 17:58:04;;;;;;;5.23;3.90;;;24.30;1.00;;;;;;8270479;28;20191;-68
2023/07/01 18:02:05;;;;;;;5.63;3.80;;;24.10;1.00;;;;;;8265841;28;20187;-68
2023/07/01 18:06:07;;;;;;;3.83;3.50;;;23.90;1.00;;;;;;8267599;28;20306;-68
2023/07/01 18:10:08;;;;;;;4.87;4.17;;;23.70;1.00;;;;;;8265103;28;20187;-68
2023/07/01 18:14:09;;;;;;;3.70;3.23;;;23.50;1.00;;;;;;8273297;28;20195;-67
2023/07/01 18:18:10;;;;;;;3.50;3.07;;;23.40;1.00;;;;;;8272043;28;20233;-68
2023/07/01 18:22:11;;;;;;;3.63;3.33;;;23.20;1.00;;;;;;8268925;28;20215;-68
2023/07/01 18:26:12;;;;;;;4.70;4.13;;;23.10;1.00;;;;;;8265771;28;20309;-68
2023/07/01 18:30:13;;;;;;;4.03;3.63;;;22.90;1.00;;;;;;8265867;28;20180;-67
2023/07/01 18:34:18;;;;;;;5.63;4.13;;;22.70;1.00;;;;;;8265542;28;20191;-67
2023/07/01 18:38:19;;;;;;;6.67;4.67;;;22.50;1.00;;;;;;8268829;28;20195;-68
2023/07/01 18:42:20;;;;;;;6.23;4.70;;;22.30;1.00;;;;;;8265152;28;20202;-67
2023/07/01 18:46:21;;;;;;;5.80;4.47;;;22.10;1.00;;;;;;8262509;28;20183;-67
2023/07/01 18:50:22;;;;;;;4.87;4.00;;;22.00;1.00;;;;;;8264769;28;20187;-68
2023/07/01 18:54:23;;;;;;;4.87;3.87;;;21.80;1.00;;;;;;8263509;28;20277;-67
2023/07/01 18:58:24;;;;;;;4.83;3.90;;;21.60;1.00;;;;;;8265221;28;20183;-67
2023/07/01 19:02:25;;;;;;;5.30;4.20;;;21.50;1.00;;;;;;8262454;28;20190;-65
2023/07/01 19:06:26;;;;;;;7.07;4.37;;;21.20;1.00;;;;;;8264931;28;20267;-66
2023/07/01 19:10:27;;;;;;;5.93;4.83;;;20.90;1.00;;;;;;8263089;28;20287;-68
2023/07/01 19:14:31;;;;;;;5.93;4.33;;;20.70;1.00;;;;;;8265251;28;20208;-68
2023/07/01 19:18:32;;;;;;;6.23;4.20;;;20.50;1.00;;;;;;8260501;28;20202;-66
2023/07/01 19:22:33;;;;;;;6.63;4.83;;;20.40;1.00;;;;;;8266372;28;20187;-66
2023/07/01 19:26:34;;;;;;;5.30;4.33;;;20.30;1.00;;;;;;8282112;28;20257;-66
2023/07/01 19:30:39;;;;;;;4.80;4.30;;;20.20;1.00;;;;;;8264569;28;20190;-65
2023/07/01 19:34:40;;;;;;;5.37;4.23;;;20.20;1.00;;;;;;8265337;28;20179;-66
2023/07/01 19:38:41;;;;;;;6.13;4.70;;;20.10;1.00;;;;;;8264401;28;20302;-62
2023/07/01 19:42:42;;;;;;;5.07;4.50;;;20.10;1.00;;;;;;8263726;28;20203;-64
2023/07/01 19:46:49;;;;;;;5.63;4.80;;;20.00;1.00;;;;;;8268865;28;20216;-59
2023/07/01 19:50:50;;;;;;;6.20;4.97;;;20.00;1.00;;;;;;8265395;28;20179;-62
2023/07/01 19:54:53;;;;;;;5.37;4.07;;;20.00;1.00;;;;;;8265360;28;20190;-63
2023/07/01 19:58:57;;;;;;;4.87;4.37;;;19.90;1.00;;;;;;8267030;28;20184;-63
2023/07/01 20:02:58;;;;;;;7.67;5.17;;;19.90;1.00;;;;;;8265030;28;20214;-64
2023/07/01 20:06:59;;;;;;;6.57;5.60;;;19.90;1.00;;;;;;8264104;28;20203;-64
2023/07/01 20:11:00;;;;;;;7.37;5.53;;;19.80;1.00;;;;;;8258775;28;20191;-64
2023/07/01 20:15:01;;;;;;;7.40;6.00;;;19.80;1.00;;;;;;8259807;28;20187;-64
2023/07/01 20:19:02;;;;;;;8.73;6.10;;;19.80;1.00;;;;;;8263295;28;20257;-64
2023/07/01 20:23:06;;;;;;;7.43;5.57;;;19.70;2.90;;;;;;8262908;28;20229;-64
2023/07/01 20:27:18;;;;;;;7.23;5.53;;;19.70;5.70;;;;;;8262050;28;20203;-63
2023/07/01 20:31:19;;;;;;;6.60;5.10;;;19.70;5.70;;;;;;8263194;28;20188;-65
2023/07/01 20:35:20;;;;;;;8.50;5.43;;;19.60;3.30;;;;;;8265326;28;20192;-65
2023/07/01 20:39:21;;;;;;;9.30;6.03;;;19.60;4.20;;;;;;8263771;28;20195;-64
2023/07/01 20:43:22;;;;;;;6.73;5.47;;;19.60;6.90;;;;;;8262990;28;20230;-64
2023/07/01 20:47:23;;;;;;;6.30;5.40;;;19.60;19.40;;;;;;8268509;28;20273;-64
2023/07/01 20:51:24;;;;;;;5.87;5.27;;;19.60;8.20;;;;;;8264781;28;20184;-63
2023/07/01 20:55:24;;;;;;;5.83;4.90;;;19.60;6.60;;;;;;8272559;28;20187;-66
2023/07/01 20:59:25;;;;;;;5.93;5.30;;;19.60;1.80;;;;;;8271594;28;20319;-65
2023/07/01 21:03:27;;;;;;;6.43;4.97;;;19.70;1.00;;;;;;8270140;28;20254;-66